createdAt,value
2022-12-24T00:00:40.305Z,15.43
2022-12-24T00:01:40.086Z,15.35
2022-12-24T00:02:40.473Z,15.37
2022-12-24T00:03:40.669Z,15.24
2022-12-24T00:04:40.102Z,15.27
2022-12-24T00:05:40.159Z,15.35
2022-12-24T00:06:39.893Z,15.28
2022-12-24T00:07:40.211Z,15.27
2022-12-24T00:08:40.337Z,15.31
2022-12-24T00:09:39.713Z,15.29
2022-12-24T00:10:39.959Z,15.17
2022-12-24T00:11:40.230Z,15.21
2022-12-24T00:12:40.247Z,15.21
2022-12-24T00:13:40.360Z,15.17
2022-12-24T00:14:40.315Z,15.15
2022-12-24T00:15:40.323Z,15.09
2022-12-24T00:16:40.551Z,15.15
2022-12-24T00:17:40.394Z,15.1
2022-12-24T00:18:49.606Z,15.07
2022-12-24T00:19:40.590Z,15.11
2022-12-24T00:20:40.138Z,15.03
2022-12-24T00:21:40.442Z,15.04
2022-12-24T00:22:40.441Z,15.09
2022-12-24T00:23:40.443Z,15.02
2022-12-24T00:24:40.507Z,15.06
2022-12-24T00:25:40.516Z,14.91
2022-12-24T00:26:40.532Z,14.92
2022-12-24T00:27:40.676Z,14.92
2022-12-24T00:28:40.552Z,14.92
2022-12-24T00:29:40.318Z,14.89
2022-12-24T00:30:40.724Z,14.99
2022-12-24T00:31:40.699Z,14.84
2022-12-24T00:32:40.624Z,14.85
2022-12-24T00:33:40.630Z,14.88
2022-12-24T00:34:40.659Z,14.88
2022-12-24T00:35:40.695Z,14.84
2022-12-24T00:36:40.174Z,14.79
2022-12-24T00:37:40.736Z,14.91
2022-12-24T00:38:40.489Z,14.85
2022-12-24T00:39:40.791Z,14.88
2022-12-24T00:40:40.835Z,14.79
2022-12-24T00:41:40.351Z,14.79
2022-12-24T00:42:40.811Z,14.73
2022-12-24T00:43:40.807Z,14.81
2022-12-24T00:44:40.854Z,14.77
2022-12-24T00:45:40.860Z,14.73
2022-12-24T00:46:41.209Z,14.69
2022-12-24T00:47:40.898Z,14.7
2022-12-24T00:48:40.915Z,14.66
2022-12-24T00:49:40.946Z,14.7
2022-12-24T00:50:41.004Z,14.7
2022-12-24T00:51:41.295Z,14.65
2022-12-24T00:52:40.739Z,14.65
2022-12-24T00:53:41.047Z,14.63
2022-12-24T00:54:40.771Z,14.58
2022-12-24T00:55:41.090Z,14.55
2022-12-24T00:56:41.060Z,14.55
2022-12-24T00:57:40.829Z,14.5
2022-12-24T00:58:41.091Z,14.6
2022-12-24T00:59:41.118Z,14.58
2022-12-24T01:00:41.144Z,14.58
2022-12-24T01:01:41.637Z,14.5
2022-12-24T01:02:41.674Z,14.54
2022-12-24T01:03:41.491Z,14.58
2022-12-24T01:04:41.216Z,14.53
2022-12-24T01:05:41.232Z,14.51
2022-12-24T01:06:41.246Z,14.53
2022-12-24T01:07:41.267Z,14.53
2022-12-24T01:08:41.094Z,14.58
2022-12-24T01:09:41.331Z,14.51
2022-12-24T01:10:41.602Z,14.47
2022-12-24T01:11:41.386Z,14.5
2022-12-24T01:12:41.488Z,14.41
2022-12-24T01:13:41.367Z,14.4
2022-12-24T01:14:41.116Z,14.4
2022-12-24T01:15:41.593Z,14.48
2022-12-24T01:16:41.528Z,14.5
2022-12-24T01:17:41.460Z,14.35
2022-12-24T01:18:41.607Z,14.4
2022-12-24T01:19:41.479Z,14.26
2022-12-24T01:20:41.254Z,14.26
2022-12-24T01:21:41.525Z,14.41
2022-12-24T01:22:41.559Z,14.32
2022-12-24T01:23:41.549Z,14.33
2022-12-24T01:24:41.331Z,14.32
2022-12-24T01:25:41.616Z,14.33
2022-12-24T01:26:41.377Z,14.26
2022-12-24T01:27:41.711Z,14.37
2022-12-24T01:28:41.390Z,14.29
2022-12-24T01:29:41.672Z,14.3
2022-12-24T01:30:41.679Z,14.28
2022-12-24T01:31:41.564Z,14.23
2022-12-24T01:32:41.717Z,14.18
2022-12-24T01:33:41.744Z,14.2
2022-12-24T01:34:41.512Z,14.18
2022-12-24T01:35:42.555Z,14.25
2022-12-24T01:36:41.782Z,14.22
2022-12-24T01:37:41.820Z,14.17
2022-12-24T01:38:41.862Z,14.26
2022-12-24T01:39:41.865Z,14.22
2022-12-24T01:40:41.870Z,14.17
2022-12-24T01:41:41.891Z,14.15
2022-12-24T01:42:41.892Z,14.22
2022-12-24T01:43:41.993Z,14.17
2022-12-24T01:44:42.541Z,14.14
2022-12-24T01:45:41.739Z,14.15
2022-12-24T01:46:42.218Z,14.18
2022-12-24T01:47:41.985Z,14.11
2022-12-24T01:48:42.068Z,14.11
2022-12-24T01:49:42.014Z,14.14
2022-12-24T01:50:42.046Z,14.11
2022-12-24T01:51:41.811Z,14.08
2022-12-24T01:52:42.214Z,14.1
2022-12-24T01:53:42.124Z,14.04
2022-12-24T01:54:41.592Z,14
2022-12-24T01:55:41.876Z,14.08
2022-12-24T01:56:41.635Z,14
2022-12-24T01:57:42.330Z,14.05
2022-12-24T01:58:42.218Z,13.97
2022-12-24T01:59:42.244Z,14
2022-12-24T02:00:41.700Z,13.99
2022-12-24T02:01:42.816Z,14.07
2022-12-24T02:02:42.486Z,14
2022-12-24T02:03:42.565Z,14.04
2022-12-24T02:04:42.039Z,13.97
2022-12-24T02:05:42.057Z,13.99
2022-12-24T02:06:42.056Z,13.93
2022-12-24T02:07:42.115Z,14
2022-12-24T02:08:42.682Z,14.03
2022-12-24T02:09:42.369Z,13.97
2022-12-24T02:10:42.387Z,13.97
2022-12-24T02:11:42.154Z,13.85
2022-12-24T02:12:42.183Z,13.86
2022-12-24T02:13:42.479Z,13.87
2022-12-24T02:14:42.209Z,13.85
2022-12-24T02:15:42.773Z,13.87
2022-12-24T02:16:42.477Z,13.85
2022-12-24T02:17:42.521Z,13.92
2022-12-24T02:18:42.503Z,13.9
2022-12-24T02:19:42.305Z,13.87
2022-12-24T02:20:42.577Z,13.85
2022-12-24T02:21:42.334Z,13.92
2022-12-24T02:22:42.589Z,13.85
2022-12-24T02:23:42.630Z,13.78
2022-12-24T02:24:42.387Z,13.78
2022-12-24T02:25:42.401Z,13.72
2022-12-24T02:26:42.170Z,13.71
2022-12-24T02:27:42.725Z,13.77
2022-12-24T02:28:42.721Z,13.78
2022-12-24T02:29:42.791Z,13.74
2022-12-24T02:30:42.507Z,13.68
2022-12-24T02:31:43.224Z,13.75
2022-12-24T02:32:42.260Z,13.74
2022-12-24T02:33:42.820Z,13.71
2022-12-24T02:34:42.851Z,13.81
2022-12-24T02:35:42.847Z,13.72
2022-12-24T02:36:42.329Z,13.71
2022-12-24T02:37:42.889Z,13.72
2022-12-24T02:38:42.894Z,13.71
2022-12-24T02:39:42.927Z,13.75
2022-12-24T02:40:42.648Z,13.72
2022-12-24T02:41:42.713Z,13.78
2022-12-24T02:42:42.711Z,13.71
2022-12-24T02:43:43.186Z,13.75
2022-12-24T02:44:42.998Z,13.68
2022-12-24T02:45:43.057Z,13.77
2022-12-24T02:46:43.225Z,13.62
2022-12-24T02:47:43.132Z,13.7
2022-12-24T02:48:43.158Z,13.68
2022-12-24T02:49:43.081Z,13.75
2022-12-24T02:50:42.840Z,13.72
2022-12-24T02:51:42.863Z,13.7
2022-12-24T02:52:43.177Z,13.63
2022-12-24T02:53:43.151Z,13.67
2022-12-24T02:54:43.176Z,13.6
2022-12-24T02:55:43.203Z,13.67
2022-12-24T02:56:43.414Z,13.59
2022-12-24T02:57:43.228Z,13.56
2022-12-24T02:58:43.236Z,13.57
2022-12-24T02:59:43.009Z,13.59
2022-12-24T03:00:43.167Z,13.6
2022-12-24T03:01:43.886Z,13.54
2022-12-24T03:02:43.659Z,13.52
2022-12-24T03:03:43.112Z,13.54
2022-12-24T03:04:43.380Z,13.59
2022-12-24T03:05:43.363Z,13.6
2022-12-24T03:06:42.871Z,13.68
2022-12-24T03:07:43.401Z,13.5
2022-12-24T03:08:42.909Z,13.57
2022-12-24T03:09:43.429Z,13.47
2022-12-24T03:10:43.453Z,13.41
2022-12-24T03:11:43.471Z,13.47
2022-12-24T03:12:43.500Z,13.59
2022-12-24T03:13:43.501Z,13.47
2022-12-24T03:14:43.541Z,13.52
2022-12-24T03:15:43.562Z,13.41
2022-12-24T03:16:43.744Z,13.46
2022-12-24T03:17:43.605Z,13.49
2022-12-24T03:18:43.637Z,13.42
2022-12-24T03:19:43.659Z,13.41
2022-12-24T03:20:43.378Z,13.39
2022-12-24T03:21:43.655Z,13.46
2022-12-24T03:22:43.658Z,13.42
2022-12-24T03:23:43.681Z,13.44
2022-12-24T03:24:43.699Z,13.33
2022-12-24T03:25:43.705Z,13.42
2022-12-24T03:26:43.749Z,13.44
2022-12-24T03:27:43.487Z,13.35
2022-12-24T03:28:43.771Z,13.44
2022-12-24T03:29:43.805Z,13.39
2022-12-24T03:30:43.796Z,13.44
2022-12-24T03:31:44.031Z,13.31
2022-12-24T03:32:43.845Z,13.28
2022-12-24T03:33:43.891Z,13.44
2022-12-24T03:34:43.861Z,13.37
2022-12-24T03:35:43.965Z,13.33
2022-12-24T03:36:43.907Z,13.28
2022-12-24T03:37:43.923Z,13.25
2022-12-24T03:38:43.950Z,13.3
2022-12-24T03:39:43.745Z,13.23
2022-12-24T03:40:43.723Z,13.27
2022-12-24T03:41:43.740Z,13.25
2022-12-24T03:42:44.011Z,13.23
2022-12-24T03:43:43.798Z,13.3
2022-12-24T03:44:43.785Z,13.3
2022-12-24T03:45:43.991Z,13.27
2022-12-24T03:46:43.835Z,13.27
2022-12-24T03:47:44.086Z,13.25
2022-12-24T03:48:43.863Z,13.2
2022-12-24T03:49:44.156Z,13.19
2022-12-24T03:50:44.160Z,13.22
2022-12-24T03:51:44.235Z,13.25
2022-12-24T03:52:44.196Z,13.15
2022-12-24T03:53:43.956Z,13.16
2022-12-24T03:54:44.245Z,13.18
2022-12-24T03:55:44.286Z,13.18
2022-12-24T03:56:44.256Z,13.23
2022-12-24T03:57:44.325Z,13.23
2022-12-24T03:58:44.025Z,13.23
2022-12-24T03:59:44.338Z,13.22
2022-12-24T04:00:44.132Z,13.31
2022-12-24T04:01:44.595Z,13.2
2022-12-24T04:02:44.869Z,13.12
2022-12-24T04:03:44.377Z,13.28
2022-12-24T04:04:44.153Z,13.25
2022-12-24T04:05:44.438Z,13.16
2022-12-24T04:06:44.829Z,13.12
2022-12-24T04:07:44.496Z,13.15
2022-12-24T04:08:44.470Z,13.18
2022-12-24T04:09:44.265Z,13.16
2022-12-24T04:10:44.027Z,13.05
2022-12-24T04:11:44.539Z,13.13
2022-12-24T04:12:44.535Z,13.05
2022-12-24T04:13:44.344Z,13.05
2022-12-24T04:14:44.607Z,13.09
2022-12-24T04:15:44.580Z,13.12
2022-12-24T04:16:44.937Z,13.08
2022-12-24T04:17:44.673Z,13.11
2022-12-24T04:18:45.047Z,13.01
2022-12-24T04:19:44.391Z,13.08
2022-12-24T04:20:44.659Z,13.12
2022-12-24T04:21:44.726Z,13.04
2022-12-24T04:22:44.733Z,13.01
2022-12-24T04:23:44.767Z,13.05
2022-12-24T04:24:44.761Z,13.09
2022-12-24T04:25:44.494Z,13.05
2022-12-24T04:26:44.764Z,13.05
2022-12-24T04:27:44.794Z,13.04
2022-12-24T04:28:44.826Z,13.03
2022-12-24T04:29:44.827Z,13.01
2022-12-24T04:30:44.837Z,13.01
2022-12-24T04:31:45.140Z,13.04
2022-12-24T04:32:44.627Z,13.03
2022-12-24T04:33:44.890Z,12.97
2022-12-24T04:34:44.920Z,13.04
2022-12-24T04:35:44.937Z,13.04
2022-12-24T04:36:44.968Z,12.98
2022-12-24T04:37:45.024Z,13.04
2022-12-24T04:38:44.725Z,13.01
2022-12-24T04:39:45.106Z,13.03
2022-12-24T04:40:45.005Z,13
2022-12-24T04:41:44.877Z,13.04
2022-12-24T04:42:45.051Z,13
2022-12-24T04:43:44.811Z,12.98
2022-12-24T04:44:45.091Z,13.01
2022-12-24T04:45:45.230Z,13.03
2022-12-24T04:46:44.876Z,12.94
2022-12-24T04:47:45.138Z,12.95
2022-12-24T04:48:45.165Z,13.01
2022-12-24T04:49:45.170Z,12.9
2022-12-24T04:50:45.180Z,12.87
2022-12-24T04:51:45.212Z,12.91
2022-12-24T04:52:45.254Z,12.87
2022-12-24T04:53:45.278Z,12.94
2022-12-24T04:54:45.263Z,12.93
2022-12-24T04:55:45.343Z,12.94
2022-12-24T04:56:45.285Z,12.83
2022-12-24T04:57:48.439Z,12.93
2022-12-24T04:58:45.341Z,12.85
2022-12-24T04:59:45.094Z,12.9
2022-12-24T05:00:45.358Z,12.9
2022-12-24T05:01:45.887Z,12.91
2022-12-24T05:02:45.982Z,12.9
2022-12-24T05:03:45.164Z,12.86
2022-12-24T05:04:45.171Z,12.87
2022-12-24T05:05:45.453Z,12.9
2022-12-24T05:06:45.471Z,12.85
2022-12-24T05:07:45.485Z,12.8
2022-12-24T05:08:45.247Z,12.85
2022-12-24T05:09:45.531Z,12.76
2022-12-24T05:10:45.286Z,12.85
2022-12-24T05:11:45.587Z,12.87
2022-12-24T05:12:45.561Z,12.79
2022-12-24T05:13:51.850Z,12.8
2022-12-24T05:14:45.363Z,12.79
2022-12-24T05:15:45.603Z,12.75
2022-12-24T05:16:45.823Z,12.79
2022-12-24T05:17:45.392Z,12.76
2022-12-24T05:18:45.881Z,12.8
2022-12-24T05:19:45.675Z,12.8
2022-12-24T05:20:45.700Z,12.79
2022-12-24T05:21:45.714Z,12.85
2022-12-24T05:22:45.738Z,12.68
2022-12-24T05:23:45.745Z,12.75
2022-12-24T05:24:45.770Z,12.82
2022-12-24T05:25:45.806Z,12.72
2022-12-24T05:26:45.827Z,12.79
2022-12-24T05:27:53.893Z,12.65
2022-12-24T05:28:45.572Z,12.68
2022-12-24T05:29:45.603Z,12.68
2022-12-24T05:30:45.756Z,12.65
2022-12-24T05:31:45.976Z,12.7
2022-12-24T05:32:45.908Z,12.65
2022-12-24T05:33:45.687Z,12.75
2022-12-24T05:34:45.951Z,12.76
2022-12-24T05:35:45.969Z,12.6
2022-12-24T05:36:45.774Z,12.75
2022-12-24T05:37:46.009Z,12.73
2022-12-24T05:38:46.005Z,12.72
2022-12-24T05:39:46.017Z,12.57
2022-12-24T05:40:46.049Z,12.68
2022-12-24T05:41:46.119Z,12.75
2022-12-24T05:42:46.095Z,12.61
2022-12-24T05:43:46.190Z,12.57
2022-12-24T05:44:46.114Z,12.61
2022-12-24T05:45:46.197Z,12.65
2022-12-24T05:46:46.321Z,12.61
2022-12-24T05:47:48.057Z,12.7
2022-12-24T05:48:46.184Z,12.62
2022-12-24T05:49:47.145Z,12.68
2022-12-24T05:50:47.362Z,12.58
2022-12-24T05:51:47.370Z,12.65
2022-12-24T05:52:46.005Z,12.61
2022-12-24T05:53:46.281Z,12.58
2022-12-24T05:54:46.019Z,12.62
2022-12-24T05:55:46.301Z,12.6
2022-12-24T05:56:46.323Z,12.55
2022-12-24T05:57:46.098Z,12.57
2022-12-24T05:58:46.099Z,12.58
2022-12-24T05:59:47.616Z,12.6
2022-12-24T06:00:46.376Z,12.58
2022-12-24T06:01:46.569Z,12.58
2022-12-24T06:02:46.158Z,12.64
2022-12-24T06:03:46.192Z,12.55
2022-12-24T06:04:46.753Z,12.55
2022-12-24T06:05:46.501Z,12.54
2022-12-24T06:06:46.495Z,12.61
2022-12-24T06:07:46.544Z,12.54
2022-12-24T06:08:46.548Z,12.58
2022-12-24T06:09:46.542Z,12.54
2022-12-24T06:10:46.565Z,12.57
2022-12-24T06:11:46.567Z,12.5
2022-12-24T06:12:47.104Z,12.5
2022-12-24T06:13:46.643Z,12.54
2022-12-24T06:14:46.371Z,12.5
2022-12-24T06:15:46.886Z,12.46
2022-12-24T06:16:46.656Z,12.49
2022-12-24T06:17:46.677Z,12.43
2022-12-24T06:18:47.085Z,12.53
2022-12-24T06:19:46.467Z,12.42
2022-12-24T06:20:46.716Z,12.5
2022-12-24T06:21:46.737Z,12.57
2022-12-24T06:22:46.514Z,12.45
2022-12-24T06:23:46.542Z,12.43
2022-12-24T06:24:46.781Z,12.46
2022-12-24T06:25:46.561Z,12.42
2022-12-24T06:26:46.827Z,12.46
2022-12-24T06:27:46.862Z,12.39
2022-12-24T06:28:46.878Z,12.42
2022-12-24T06:29:46.904Z,12.43
2022-12-24T06:30:47.033Z,12.43
2022-12-24T06:31:47.320Z,12.37
2022-12-24T06:32:46.925Z,12.43
2022-12-24T06:33:46.991Z,12.37
2022-12-24T06:34:46.965Z,12.45
2022-12-24T06:35:46.991Z,12.49
2022-12-24T06:36:47.003Z,12.39
2022-12-24T06:37:47.007Z,12.37
2022-12-24T06:38:47.023Z,12.42
2022-12-24T06:39:47.046Z,12.36
2022-12-24T06:40:47.069Z,12.36
2022-12-24T06:41:47.068Z,12.39
2022-12-24T06:42:47.127Z,12.42
2022-12-24T06:43:47.134Z,12.39
2022-12-24T06:44:47.167Z,12.37
2022-12-24T06:45:47.219Z,12.42
2022-12-24T06:46:47.311Z,12.4
2022-12-24T06:47:46.984Z,12.31
2022-12-24T06:48:47.271Z,12.32
2022-12-24T06:49:47.204Z,12.32
2022-12-24T06:50:47.080Z,12.32
2022-12-24T06:51:47.233Z,12.39
2022-12-24T06:52:47.257Z,12.43
2022-12-24T06:53:47.016Z,12.36
2022-12-24T06:54:47.308Z,12.36
2022-12-24T06:55:47.080Z,12.4
2022-12-24T06:56:47.321Z,12.31
2022-12-24T06:57:47.353Z,12.37
2022-12-24T06:58:47.362Z,12.25
2022-12-24T06:59:47.119Z,12.37
2022-12-24T07:00:46.866Z,12.31
2022-12-24T07:01:48.032Z,12.29
2022-12-24T07:02:47.644Z,12.35
2022-12-24T07:03:47.788Z,12.22
2022-12-24T07:04:47.480Z,12.28
2022-12-24T07:05:47.477Z,12.32
2022-12-24T07:06:47.507Z,12.31
2022-12-24T07:07:47.591Z,12.29
2022-12-24T07:08:47.529Z,12.36
2022-12-24T07:09:47.578Z,12.35
2022-12-24T07:10:54.872Z,12.27
2022-12-24T07:11:47.592Z,12.29
2022-12-24T07:12:47.618Z,12.24
2022-12-24T07:13:47.591Z,12.29
2022-12-24T07:14:47.391Z,12.32
2022-12-24T07:15:47.770Z,12.28
2022-12-24T07:16:48.934Z,12.31
2022-12-24T07:17:47.972Z,12.24
2022-12-24T07:18:48.048Z,12.24
2022-12-24T07:19:47.763Z,12.32
2022-12-24T07:20:47.478Z,12.29
2022-12-24T07:21:47.764Z,12.31
2022-12-24T07:22:47.762Z,12.25
2022-12-24T07:23:47.776Z,12.27
2022-12-24T07:24:47.791Z,12.28
2022-12-24T07:25:47.882Z,12.29
2022-12-24T07:26:47.852Z,12.21
2022-12-24T07:27:47.582Z,12.22
2022-12-24T07:28:47.871Z,12.24
2022-12-24T07:29:47.875Z,12.2
2022-12-24T07:30:47.888Z,12.28
2022-12-24T07:31:48.177Z,12.28
2022-12-24T07:32:47.664Z,12.31
2022-12-24T07:33:47.738Z,12.2
2022-12-24T07:34:47.699Z,12.28
2022-12-24T07:35:55.898Z,12.24
2022-12-24T07:36:47.998Z,12.24
2022-12-24T07:37:48.030Z,12.28
2022-12-24T07:38:48.013Z,12.18
2022-12-24T07:39:48.062Z,12.21
2022-12-24T07:40:48.061Z,12.28
2022-12-24T07:41:48.073Z,12.15
2022-12-24T07:42:48.093Z,12.18
2022-12-24T07:43:47.877Z,12.2
2022-12-24T07:44:47.883Z,12.18
2022-12-24T07:45:48.157Z,12.15
2022-12-24T07:46:48.443Z,12.24
2022-12-24T07:47:48.173Z,12.13
2022-12-24T07:48:47.684Z,12.21
2022-12-24T07:49:48.273Z,12.21
2022-12-24T07:50:47.964Z,12.17
2022-12-24T07:51:48.348Z,12.18
2022-12-24T07:52:48.261Z,12.2
2022-12-24T07:53:48.280Z,12.15
2022-12-24T07:54:48.030Z,12.2
2022-12-24T07:55:48.064Z,12.18
2022-12-24T07:56:48.323Z,12.12
2022-12-24T07:57:48.362Z,12.2
2022-12-24T07:58:48.107Z,12.15
2022-12-24T07:59:48.384Z,12.22
2022-12-24T08:00:48.389Z,12.15
2022-12-24T08:01:49.216Z,12.1
2022-12-24T08:02:49.135Z,12.21
2022-12-24T08:03:48.961Z,12.22
2022-12-24T08:04:48.474Z,12.12
2022-12-24T08:05:48.280Z,12.18
2022-12-24T08:06:48.257Z,12.21
2022-12-24T08:07:48.573Z,12.18
2022-12-24T08:08:48.541Z,12.2
2022-12-24T08:09:48.397Z,12.15
2022-12-24T08:10:48.568Z,12.18
2022-12-24T08:11:56.254Z,12.15
2022-12-24T08:12:48.610Z,12.07
2022-12-24T08:13:48.349Z,12.13
2022-12-24T08:14:48.628Z,12.15
2022-12-24T08:15:48.700Z,12.17
2022-12-24T08:16:49.112Z,12.1
2022-12-24T08:17:48.215Z,12.1
2022-12-24T08:18:49.151Z,12.07
2022-12-24T08:19:48.750Z,12.21
2022-12-24T08:20:48.790Z,12.21
2022-12-24T08:21:48.773Z,12.17
2022-12-24T08:22:48.794Z,12.15
2022-12-24T08:23:48.890Z,12.18
2022-12-24T08:24:48.544Z,12.04
2022-12-24T08:25:48.816Z,12.2
2022-12-24T08:26:48.560Z,12.21
2022-12-24T08:27:48.575Z,12.09
2022-12-24T08:28:48.600Z,12.13
2022-12-24T08:29:48.874Z,12.17
2022-12-24T08:30:48.889Z,12.1
2022-12-24T08:31:49.269Z,12.1
2022-12-24T08:32:48.941Z,12.21
2022-12-24T08:33:48.965Z,12.07
2022-12-24T08:34:48.956Z,12.09
2022-12-24T08:35:48.988Z,12.13
2022-12-24T08:36:48.740Z,12.13
2022-12-24T08:37:49.053Z,12.18
2022-12-24T08:38:48.814Z,12.1
2022-12-24T08:39:49.081Z,12.06
2022-12-24T08:40:49.043Z,12.1
2022-12-24T08:41:49.073Z,12.07
2022-12-24T08:42:49.493Z,12.07
2022-12-24T08:43:49.114Z,12.03
2022-12-24T08:44:48.891Z,12.12
2022-12-24T08:45:49.380Z,12.06
2022-12-24T08:46:49.264Z,12.06
2022-12-24T08:47:49.190Z,12.1
2022-12-24T08:48:48.926Z,12.17
2022-12-24T08:49:48.952Z,12.09
2022-12-24T08:50:49.252Z,12.12
2022-12-24T08:51:48.973Z,12.15
2022-12-24T08:52:49.259Z,12.09
2022-12-24T08:53:49.304Z,12.13
2022-12-24T08:54:49.023Z,12.1
2022-12-24T08:55:58.321Z,12.1
2022-12-24T08:56:49.320Z,12.12
2022-12-24T08:57:49.340Z,12.07
2022-12-24T08:58:49.359Z,12.04
2022-12-24T08:59:49.109Z,12.12
2022-12-24T09:00:49.043Z,12.12
2022-12-24T09:01:50.044Z,12.09
2022-12-24T09:02:49.659Z,12.1
2022-12-24T09:03:49.847Z,12.09
2022-12-24T09:04:49.455Z,12.07
2022-12-24T09:05:49.464Z,12.04
2022-12-24T09:06:49.496Z,12.13
2022-12-24T09:07:49.506Z,12.1
2022-12-24T09:08:49.590Z,12.04
2022-12-24T09:09:49.572Z,12.07
2022-12-24T09:10:49.564Z,12.12
2022-12-24T09:11:49.404Z,12.12
2022-12-24T09:12:49.589Z,12.04
2022-12-24T09:13:49.401Z,11.97
2022-12-24T09:14:49.615Z,12.06
2022-12-24T09:15:49.408Z,12.06
2022-12-24T09:16:49.842Z,12.03
2022-12-24T09:17:49.675Z,12.04
2022-12-24T09:18:49.633Z,12.03
2022-12-24T09:19:49.566Z,12.02
2022-12-24T09:20:57.678Z,12.02
2022-12-24T09:21:49.735Z,12.06
2022-12-24T09:22:49.541Z,12
2022-12-24T09:23:49.781Z,12.09
2022-12-24T09:24:49.806Z,12
2022-12-24T09:25:49.838Z,11.99
2022-12-24T09:26:57.894Z,12
2022-12-24T09:27:49.894Z,12.04
2022-12-24T09:28:49.845Z,11.97
2022-12-24T09:29:50.010Z,12.02
2022-12-24T09:30:49.890Z,12.06
2022-12-24T09:31:50.219Z,11.99
2022-12-24T09:32:49.913Z,12.06
2022-12-24T09:33:49.973Z,12.03
2022-12-24T09:34:49.973Z,12
2022-12-24T09:35:49.978Z,12.06
2022-12-24T09:36:49.991Z,12.02
2022-12-24T09:37:50.005Z,11.95
2022-12-24T09:38:50.005Z,11.94
2022-12-24T09:39:50.203Z,12.07
2022-12-24T09:40:50.049Z,12.04
2022-12-24T09:41:50.112Z,12.06
2022-12-24T09:42:49.843Z,12.03
2022-12-24T09:43:50.121Z,12.02
2022-12-24T09:44:50.106Z,11.97
2022-12-24T09:45:50.281Z,11.99
2022-12-24T09:46:50.172Z,12.02
2022-12-24T09:47:50.170Z,12.06
2022-12-24T09:48:49.925Z,12.02
2022-12-24T09:49:50.203Z,12.03
2022-12-24T09:50:49.750Z,12.04
2022-12-24T09:51:50.242Z,12
2022-12-24T09:52:50.251Z,12.02
2022-12-24T09:53:50.277Z,12
2022-12-24T09:54:54.877Z,11.97
2022-12-24T09:55:50.342Z,12.07
2022-12-24T09:56:50.307Z,12.03
2022-12-24T09:57:50.388Z,11.95
2022-12-24T09:58:50.483Z,12
2022-12-24T09:59:50.394Z,12.03
2022-12-24T10:00:54.675Z,12.02
2022-12-24T10:01:50.866Z,12.02
2022-12-24T10:02:50.963Z,11.95
2022-12-24T10:03:50.473Z,11.99
2022-12-24T10:04:50.447Z,12.04
2022-12-24T10:05:50.218Z,12.03
2022-12-24T10:06:50.487Z,12.03
2022-12-24T10:07:50.237Z,11.97
2022-12-24T10:08:50.519Z,11.91
2022-12-24T10:09:50.361Z,11.95
2022-12-24T10:10:50.556Z,11.94
2022-12-24T10:11:50.561Z,11.94
2022-12-24T10:12:54.654Z,12
2022-12-24T10:13:50.607Z,12.06
2022-12-24T10:14:50.624Z,11.88
2022-12-24T10:15:50.648Z,12.04
2022-12-24T10:16:50.939Z,12
2022-12-24T10:17:50.402Z,12.02
2022-12-24T10:18:54.481Z,11.88
2022-12-24T10:19:50.679Z,11.99
2022-12-24T10:20:51.938Z,11.95
2022-12-24T10:21:51.881Z,11.87
2022-12-24T10:22:50.785Z,12.06
2022-12-24T10:23:50.495Z,11.95
2022-12-24T10:24:55.486Z,12
2022-12-24T10:25:50.541Z,11.99
2022-12-24T10:26:50.830Z,12.03
2022-12-24T10:27:50.818Z,11.91
2022-12-24T10:28:50.866Z,12.02
2022-12-24T10:29:51.015Z,12
2022-12-24T10:30:50.535Z,11.99
2022-12-24T10:31:50.669Z,12.02
2022-12-24T10:32:50.670Z,11.97
2022-12-24T10:33:50.679Z,12
2022-12-24T10:34:50.934Z,12.03
2022-12-24T10:35:50.974Z,11.97
2022-12-24T10:36:50.467Z,12.02
2022-12-24T10:37:51.038Z,12
2022-12-24T10:38:51.033Z,12.04
2022-12-24T10:39:50.766Z,11.88
2022-12-24T10:40:51.104Z,12.02
2022-12-24T10:41:51.102Z,12.02
2022-12-24T10:42:56.209Z,11.87
2022-12-24T10:43:50.837Z,11.91
2022-12-24T10:44:51.149Z,11.97
2022-12-24T10:45:51.271Z,11.88
2022-12-24T10:46:51.396Z,11.91
2022-12-24T10:47:51.177Z,12.02
2022-12-24T10:48:55.468Z,11.99
2022-12-24T10:49:51.200Z,12.03
2022-12-24T10:50:51.210Z,12.02
2022-12-24T10:51:51.220Z,12.03
2022-12-24T10:52:51.242Z,11.95
2022-12-24T10:53:50.745Z,12.03
2022-12-24T10:54:51.288Z,12
2022-12-24T10:55:51.071Z,12.02
2022-12-24T10:56:51.299Z,12.02
2022-12-24T10:57:51.065Z,11.97
2022-12-24T10:58:51.094Z,11.99
2022-12-24T10:59:50.837Z,11.99
2022-12-24T11:00:51.399Z,12.04
2022-12-24T11:01:52.003Z,12.02
2022-12-24T11:02:51.924Z,11.99
2022-12-24T11:03:51.440Z,12.02
2022-12-24T11:04:51.499Z,12.02
2022-12-24T11:05:51.507Z,12.04
2022-12-24T11:06:54.192Z,12
2022-12-24T11:07:51.513Z,12.03
2022-12-24T11:08:51.297Z,12.02
2022-12-24T11:09:51.552Z,12.06
2022-12-24T11:10:51.525Z,11.95
2022-12-24T11:11:51.619Z,12.03
2022-12-24T11:13:39.223Z,12.03
2022-12-24T11:13:51.604Z,12.03
2022-12-24T11:14:51.754Z,11.99
2022-12-24T11:15:51.791Z,12.03
2022-12-24T11:16:51.649Z,11.97
2022-12-24T11:17:51.682Z,12.07
2022-12-24T11:18:56.446Z,12.04
2022-12-24T11:19:51.685Z,11.97
2022-12-24T11:20:51.460Z,12.13
2022-12-24T11:21:51.503Z,12.1
2022-12-24T11:22:51.474Z,12.13
2022-12-24T11:23:51.809Z,12.13
2022-12-24T11:24:55.249Z,12.07
2022-12-24T11:25:51.546Z,12.1
2022-12-24T11:26:51.603Z,12.15
2022-12-24T11:27:51.933Z,12.07
2022-12-24T11:28:51.828Z,12.12
2022-12-24T11:29:51.849Z,12.17
2022-12-24T11:30:52.119Z,12.18
2022-12-24T11:31:51.929Z,12.22
2022-12-24T11:32:51.672Z,12.24
2022-12-24T11:33:52.052Z,12.18
2022-12-24T11:34:52.048Z,12.18
2022-12-24T11:35:51.711Z,12.17
2022-12-24T11:36:51.992Z,12.17
2022-12-24T11:37:51.999Z,12.21
2022-12-24T11:38:51.744Z,12.28
2022-12-24T11:39:51.803Z,12.24
2022-12-24T11:40:52.091Z,12.24
2022-12-24T11:41:52.053Z,12.31
2022-12-24T11:42:52.066Z,12.24
2022-12-24T11:43:51.938Z,12.24
2022-12-24T11:44:52.116Z,12.17
2022-12-24T11:45:52.158Z,12.28
2022-12-24T11:46:52.161Z,12.36
2022-12-24T11:47:51.916Z,12.25
2022-12-24T11:48:52.177Z,12.2
2022-12-24T11:49:52.210Z,12.27
2022-12-24T11:50:52.257Z,12.22
2022-12-24T11:51:52.229Z,12.22
2022-12-24T11:52:51.718Z,12.35
2022-12-24T11:53:52.004Z,12.21
2022-12-24T11:54:52.022Z,12.25
2022-12-24T11:55:52.312Z,12.31
2022-12-24T11:56:52.317Z,12.28
2022-12-24T11:57:52.330Z,12.28
2022-12-24T11:58:52.055Z,12.31
2022-12-24T11:59:52.090Z,12.27
2022-12-24T12:00:52.114Z,12.28
2022-12-24T12:01:52.578Z,12.27
2022-12-24T12:02:52.633Z,12.21
2022-12-24T12:03:52.701Z,12.28
2022-12-24T12:04:52.436Z,12.24
2022-12-24T12:05:52.499Z,12.27
2022-12-24T12:06:52.520Z,12.24
2022-12-24T12:07:52.254Z,12.25
2022-12-24T12:08:52.504Z,12.24
2022-12-24T12:09:52.541Z,12.32
2022-12-24T12:10:52.532Z,12.35
2022-12-24T12:11:52.543Z,12.25
2022-12-24T12:12:52.581Z,12.29
2022-12-24T12:13:52.580Z,12.28
2022-12-24T12:14:52.419Z,12.25
2022-12-24T12:15:52.580Z,12.25
2022-12-24T12:16:52.364Z,12.36
2022-12-24T12:17:52.679Z,12.28
2022-12-24T12:18:52.473Z,12.36
2022-12-24T12:19:52.687Z,12.25
2022-12-24T12:20:52.708Z,12.24
2022-12-24T12:21:52.747Z,12.28
2022-12-24T12:22:52.835Z,12.27
2022-12-24T12:23:52.795Z,12.28
2022-12-24T12:24:52.253Z,12.25
2022-12-24T12:25:52.788Z,12.22
2022-12-24T12:26:52.535Z,12.29
2022-12-24T12:27:52.824Z,12.24
2022-12-24T12:28:52.569Z,12.31
2022-12-24T12:29:52.857Z,12.25
2022-12-24T12:30:52.864Z,12.31
2022-12-24T12:31:53.120Z,12.27
2022-12-24T12:32:53.129Z,12.28
2022-12-24T12:33:52.696Z,12.29
2022-12-24T12:34:52.950Z,12.18
2022-12-24T12:35:52.688Z,12.22
2022-12-24T12:36:52.963Z,12.29
2022-12-24T12:37:53.008Z,12.28
2022-12-24T12:38:53.051Z,12.27
2022-12-24T12:39:52.495Z,12.27
2022-12-24T12:40:53.029Z,12.2
2022-12-24T12:41:53.039Z,12.25
2022-12-24T12:42:53.052Z,12.2
2022-12-24T12:43:52.831Z,12.27
2022-12-24T12:44:53.105Z,12.2
2022-12-24T12:45:53.114Z,12.29
2022-12-24T12:46:53.277Z,12.29
2022-12-24T12:47:53.165Z,12.22
2022-12-24T12:48:57.005Z,12.29
2022-12-24T12:49:53.196Z,12.28
2022-12-24T12:50:53.211Z,12.17
2022-12-24T12:51:53.223Z,12.2
2022-12-24T12:52:52.958Z,12.15
2022-12-24T12:53:53.272Z,12.2
2022-12-24T12:54:53.341Z,12.12
2022-12-24T12:55:53.010Z,12.2
2022-12-24T12:56:53.302Z,12.15
2022-12-24T12:57:53.311Z,12.2